Time;durP1;ratioP1;P1;durP2;ratioP2;P2;SDS_P1;SDS_P2;PMS_P1;PMS_P2;Temp;Humidity;BMP_temperature;BMP_pressure;BME280_temperature;BME280_humidity;BME280_pressure;Samples;Min_cycle;Max_cycle;Signal;HPM_P1;HPM_P2
2023/12/31 00:00:12;;;;;;;8.80;5.50;;;;;;;6.31;92.80;97657.72;4090854;28;20647;-82
2023/12/31 00:02:15;;;;;;;8.25;6.15;;;;;;;6.31;93.14;97649.13;4109605;28;20300;-82
2023/12/31 00:04:17;;;;;;;10.32;6.78;;;;;;;6.30;93.51;97640.53;4109916;28;20204;-84
2023/12/31 00:06:20;;;;;;;9.82;5.20;;;;;;;6.27;93.67;97639.88;4107385;28;20291;-82
2023/12/31 00:08:24;;;;;;;8.80;6.18;;;;;;;6.26;93.76;97636.47;4094435;28;20246;-83
2023/12/31 00:10:28;;;;;;;7.18;5.60;;;;;;;6.23;93.16;97634.03;4091073;28;20588;-82
2023/12/31 00:12:32;;;;;;;8.50;5.25;;;;;;;6.24;93.73;97634.88;4107954;28;20212;-83
2023/12/31 00:14:35;;;;;;;7.47;5.35;;;;;;;6.25;93.52;97621.84;4091170;28;20208;-83
2023/12/31 00:16:38;;;;;;;9.02;5.43;;;;;;;6.23;93.50;97618.50;4108839;28;20341;-83
2023/12/31 00:18:41;;;;;;;6.95;5.60;;;;;;;6.25;93.39;97621.84;4093227;28;20229;-82
2023/12/31 00:20:44;;;;;;;9.80;5.72;;;;;;;6.23;94.13;97612.50;4108593;28;20263;-82
2023/12/31 00:22:48;;;;;;;8.93;5.60;;;;;;;6.21;94.20;97611.78;4122532;28;20205;-82
2023/12/31 00:24:54;;;;;;;6.57;5.30;;;;;;;6.18;93.42;97610.19;4118481;28;20213;-82
2023/12/31 00:26:58;;;;;;;9.82;5.45;;;;;;;6.13;92.69;97601.88;4108118;28;20204;-82
2023/12/31 00:29:01;;;;;;;8.57;5.85;;;;;;;6.10;92.66;97601.19;4090226;28;20340;-83
2023/12/31 00:31:05;;;;;;;9.13;5.47;;;;;;;6.11;93.49;97608.06;4092616;28;20202;-82
2023/12/31 00:33:08;;;;;;;6.68;4.97;;;;;;;6.09;93.35;97605.56;4109980;28;20236;-83
2023/12/31 00:35:13;;;;;;;9.27;5.32;;;;;;;6.08;93.10;97598.69;4103649;28;20216;-82
2023/12/31 00:37:16;;;;;;;7.00;5.07;;;;;;;6.07;92.89;97600.56;4109897;28;20711;-82
2023/12/31 00:39:20;;;;;;;9.32;5.07;;;;;;;6.07;93.26;97592.78;4105578;28;20678;-82
2023/12/31 00:41:23;;;;;;;8.55;5.40;;;;;;;6.05;92.68;97592.88;4089282;28;20211;-83
2023/12/31 00:43:28;;;;;;;8.40;5.40;;;;;;;6.02;93.05;97584.47;4090882;28;20216;-82
2023/12/31 00:45:31;;;;;;;6.20;4.80;;;;;;;6.00;92.76;97586.31;4109963;28;20591;-82
2023/12/31 00:47:34;;;;;;;8.55;4.80;;;;;;;5.96;92.47;97577.06;4090800;28;20344;-82
2023/12/31 00:49:37;;;;;;;7.70;5.10;;;;;;;5.93;92.64;97583.25;4107173;28;20232;-82
2023/12/31 00:51:40;;;;;;;7.90;5.60;;;;;;;5.91;92.58;97576.47;4106616;28;20211;-82
2023/12/31 00:53:44;;;;;;;6.25;4.80;;;;;;;5.90;92.60;97580.00;4093340;28;20213;-84
2023/12/31 00:55:48;;;;;;;7.60;5.38;;;;;;;5.87;92.80;97565.50;4106180;28;20236;-84
2023/12/31 00:57:52;;;;;;;6.45;4.68;;;;;;;5.87;92.87;97570.66;4099672;28;20265;-82
2023/12/31 00:59:56;;;;;;;7.55;4.60;;;;;;;5.80;92.37;97566.78;4090163;28;20244;-82
2023/12/31 01:02:00;;;;;;;6.43;5.13;;;;;;;5.80;92.92;97568.53;4089612;28;20850;-82
2023/12/31 01:04:03;;;;;;;6.47;5.00;;;;;;;5.83;93.34;97570.94;4109395;28;20214;-83
2023/12/31 01:06:06;;;;;;;7.47;5.13;;;;;;;5.81;92.91;97573.59;4108113;28;20276;-82
2023/12/31 01:08:09;;;;;;;6.20;4.55;;;;;;;5.82;93.07;97569.28;4105443;28;20242;-82
2023/12/31 01:10:12;;;;;;;7.15;5.05;;;;;;;5.80;92.63;97571.09;4108415;28;20213;-82
2023/12/31 01:12:16;;;;;;;7.05;5.20;;;;;;;5.79;92.63;97567.69;4109753;28;20203;-82
2023/12/31 01:14:19;;;;;;;6.18;4.38;;;;;;;5.77;92.26;97553.19;4108500;28;20942;-83
2023/12/31 01:16:24;;;;;;;9.25;4.57;;;;;;;5.77;92.21;97555.75;4093537;28;20213;-84
2023/12/31 01:18:27;;;;;;;7.15;5.40;;;;;;;5.78;93.00;97550.50;4119273;28;20212;-83
2023/12/31 01:20:31;;;;;;;10.85;5.85;;;;;;;5.78;92.70;97557.44;4107135;28;20225;-82
2023/12/31 01:22:34;;;;;;;6.70;5.10;;;;;;;5.71;93.24;97548.31;4085087;28;20203;-82
2023/12/31 01:24:36;;;;;;;7.32;4.85;;;;;;;5.71;93.82;97550.91;4092481;28;20223;-82
2023/12/31 01:26:40;;;;;;;7.93;5.05;;;;;;;5.72;93.34;97543.06;4109798;28;20666;-83
2023/12/31 01:28:43;;;;;;;7.15;5.13;;;;;;;5.70;93.25;97539.75;4092147;28;20223;-82
2023/12/31 01:30:46;;;;;;;7.38;4.72;;;;;;;5.70;92.98;97542.34;4093360;28;20220;-81
2023/12/31 01:32:51;;;;;;;6.32;4.70;;;;;;;5.66;92.31;97535.66;4121739;28;20573;-83
2023/12/31 01:34:57;;;;;;;6.18;4.70;;;;;;;5.66;93.21;97522.72;4107870;28;20205;-84
2023/12/31 01:37:00;;;;;;;6.70;5.10;;;;;;;5.67;92.75;97523.59;4093438;28;20802;-83
2023/12/31 01:39:04;;;;;;;7.40;5.25;;;;;;;5.66;92.98;97514.97;4090501;28;20206;-83
2023/12/31 01:41:08;;;;;;;8.50;5.50;;;;;;;5.66;93.04;97517.56;4107490;28;20303;-82
2023/12/31 01:43:12;;;;;;;6.00;4.57;;;;;;;5.64;93.77;97513.41;4104310;28;20226;-83
2023/12/31 01:45:15;;;;;;;6.40;4.93;;;;;;;5.61;93.18;97517.00;4108571;28;20213;-81
2023/12/31 01:47:19;;;;;;;8.80;5.65;;;;;;;5.61;94.21;97511.00;4109122;28;20252;-82
2023/12/31 01:49:26;;;;;;;9.25;5.30;;;;;;;5.64;94.42;97518.59;4094806;28;20857;-83
2023/12/31 01:51:31;;;;;;;7.60;5.03;;;;;;;5.62;94.33;97507.47;4106748;28;20205;-82
2023/12/31 01:53:34;;;;;;;7.30;5.30;;;;;;;5.59;93.43;97505.06;4091557;28;20249;-84
2023/12/31 01:55:37;;;;;;;5.80;4.85;;;;;;;5.55;93.05;97501.00;4122365;28;20295;-82
2023/12/31 01:57:41;;;;;;;9.93;5.65;;;;;;;5.50;92.40;97497.84;4094246;28;20609;-82
2023/12/31 01:59:43;;;;;;;8.65;5.18;;;;;;;5.55;91.96;97488.09;4094176;28;20295;-82
2023/12/31 02:01:48;;;;;;;9.10;4.97;;;;;;;5.48;92.88;97486.78;4107452;28;20230;-83
2023/12/31 02:04:07;;;;;;;7.85;5.00;;;;;;;5.47;92.84;97486.84;4093691;28;20197;-84
2023/12/31 02:06:12;;;;;;;7.80;4.72;;;;;;;5.47;92.71;97484.28;4095114;28;20209;-82
2023/12/31 02:08:16;;;;;;;6.53;4.40;;;;;;;5.44;92.56;97469.78;4093755;28;20213;-82
2023/12/31 02:10:20;;;;;;;9.13;5.20;;;;;;;5.43;92.60;97478.47;4105256;28;20221;-82
2023/12/31 02:12:24;;;;;;;7.72;5.18;;;;;;;5.43;92.88;97472.47;4104233;28;20238;-82
2023/12/31 02:14:27;;;;;;;7.50;4.35;;;;;;;5.42;92.66;97466.44;4095081;28;20706;-82
2023/12/31 02:16:31;;;;;;;6.28;5.10;;;;;;;5.35;92.40;97449.63;4094339;28;20244;-82
2023/12/31 02:18:34;;;;;;;7.20;4.82;;;;;;;5.33;92.96;97453.22;4094948;28;20857;-82
2023/12/31 02:20:38;;;;;;;11.43;4.63;;;;;;;5.32;93.19;97449.81;4111611;28;20319;-82
2023/12/31 02:22:43;;;;;;;8.63;5.18;;;;;;;5.35;93.11;97448.78;4092315;28;20272;-82
2023/12/31 02:24:48;;;;;;;6.30;4.47;;;;;;;5.33;92.83;97448.88;4089067;28;20254;-82
2023/12/31 02:26:54;;;;;;;6.68;4.57;;;;;;;5.31;92.52;97449.91;4110517;28;20684;-83
2023/12/31 02:28:57;;;;;;;6.20;4.35;;;;;;;5.30;93.50;97446.47;4087741;28;20596;-83
2023/12/31 02:31:00;;;;;;;6.05;4.70;;;;;;;5.29;92.93;97439.66;4095408;28;20214;-84
2023/12/31 02:33:04;;;;;;;5.47;4.53;;;;;;;5.29;92.78;97439.66;4111887;28;20253;-83
2023/12/31 02:35:09;;;;;;;6.22;4.80;;;;;;;5.24;92.63;97427.91;4124453;28;20204;-82
2023/12/31 02:37:13;;;;;;;5.88;4.40;;;;;;;5.22;92.36;97427.19;4095817;28;20207;-81
2023/12/31 02:39:16;;;;;;;5.85;4.60;;;;;;;5.21;92.78;97428.91;4093684;28;20206;-82
2023/12/31 02:41:20;;;;;;;8.13;4.80;;;;;;;5.22;92.55;97430.59;4104275;28;20226;-82
2023/12/31 02:43:25;;;;;;;6.32;4.05;;;;;;;5.22;92.78;97428.00;4121499;28;20758;-82
2023/12/31 02:45:29;;;;;;;4.95;3.83;;;;;;;5.23;92.33;97423.66;4108127;28;20212;-82
2023/12/31 02:47:33;;;;;;;7.68;4.40;;;;;;;5.24;92.85;97426.16;4111269;28;20210;-82
2023/12/31 02:49:37;;;;;;;4.72;3.88;;;;;;;5.23;92.79;97419.34;4103983;28;20316;-82
2023/12/31 02:51:41;;;;;;;8.73;4.00;;;;;;;5.23;92.45;97418.47;4093636;28;20244;-84
2023/12/31 02:53:45;;;;;;;8.00;4.00;;;;;;;5.21;92.42;97408.25;4093967;28;20337;-82
2023/12/31 02:55:49;;;;;;;5.75;3.63;;;;;;;5.21;93.41;97415.16;4090644;28;20719;-82
2023/12/31 02:57:52;;;;;;;5.22;4.03;;;;;;;5.21;93.38;97407.41;4094085;28;20210;-82
2023/12/31 02:59:57;;;;;;;4.35;3.30;;;;;;;5.19;92.65;97402.34;4093115;28;20234;-82
2023/12/31 03:02:01;;;;;;;4.75;3.50;;;;;;;5.19;93.05;97388.59;4122537;28;20323;-83
2023/12/31 03:04:06;;;;;;;4.57;3.50;;;;;;;5.18;92.94;97390.31;4123180;28;20258;-82
2023/12/31 03:06:09;;;;;;;5.25;3.63;;;;;;;5.18;91.87;97376.59;4093245;28;20692;-81
2023/12/31 03:08:13;;;;;;;5.03;3.90;;;;;;;5.15;91.66;97363.84;4088879;28;20726;-82
2023/12/31 03:10:16;;;;;;;5.90;3.53;;;;;;;5.15;92.00;97366.44;4094633;28;20723;-82
2023/12/31 03:12:20;;;;;;;4.40;3.40;;;;;;;5.16;92.40;97362.94;4094210;28;20215;-82
2023/12/31 03:14:24;;;;;;;5.05;3.50;;;;;;;5.18;92.80;97355.91;4108246;28;20755;-83
2023/12/31 03:16:29;;;;;;;6.28;3.92;;;;;;;5.21;92.92;97356.56;4105322;28;20255;-83
2023/12/31 03:18:33;;;;;;;3.72;3.28;;;;;;;5.27;94.24;97353.59;4103305;28;20234;-82
2023/12/31 03:20:37;;;;;;;5.57;3.75;;;;;;;5.31;93.93;97349.94;4092541;28;20257;-82
2023/12/31 03:22:41;;;;;;;5.22;3.55;;;;;;;5.31;94.38;97344.75;4106261;28;20234;-82
2023/12/31 03:24:45;;;;;;;4.50;3.40;;;;;;;5.33;94.47;97347.25;4053183;28;1137417;-82
2023/12/31 03:26:49;;;;;;;4.70;3.42;;;;;;;5.35;94.39;97338.50;4085908;28;20211;-82
2023/12/31 03:28:53;;;;;;;5.20;3.90;;;;;;;5.32;95.14;97333.50;4092197;28;20202;-82
2023/12/31 03:30:56;;;;;;;6.20;4.43;;;;;;;5.35;95.04;97330.75;4110488;28;20257;-82
2023/12/31 03:33:03;;;;;;;7.43;4.13;;;;;;;5.34;94.66;97329.06;4094367;28;20686;-82
2023/12/31 03:35:08;;;;;;;5.20;3.35;;;;;;;5.35;94.68;97320.41;4091083;28;20202;-82
2023/12/31 03:37:12;;;;;;;6.47;3.55;;;;;;;5.37;94.43;97320.31;4122454;28;20214;-81
2023/12/31 03:39:15;;;;;;;5.30;3.45;;;;;;;5.39;95.76;97316.69;4106364;28;20258;-82
2023/12/31 03:41:19;;;;;;;4.30;3.50;;;;;;;5.39;94.58;97316.69;4090819;28;20204;-82
2023/12/31 03:43:24;;;;;;;5.47;3.90;;;;;;;5.43;94.75;97307.84;4109943;28;20205;-82
2023/12/31 03:45:28;;;;;;;9.13;4.00;;;;;;;5.44;94.71;97309.50;4111597;28;20629;-82
2023/12/31 03:47:32;;;;;;;4.60;3.17;;;;;;;5.47;94.87;97311.88;4108876;28;20210;-82
2023/12/31 03:49:37;;;;;;;4.63;3.35;;;;;;;5.48;95.66;97305.78;4090237;28;20309;-82
2023/12/31 03:51:41;;;;;;;4.65;3.30;;;;;;;5.51;95.27;97304.78;4093101;28;20207;-82
2023/12/31 03:53:45;;;;;;;3.92;2.90;;;;;;;5.50;95.43;97311.69;4109274;28;20234;-82
2023/12/31 03:55:48;;;;;;;4.50;3.70;;;;;;;5.51;95.35;97300.44;4109713;28;20716;-82
2023/12/31 03:57:52;;;;;;;4.57;3.28;;;;;;;5.51;95.73;97302.19;4107848;28;20588;-82
2023/12/31 03:59:56;;;;;;;5.13;3.42;;;;;;;5.52;95.71;97302.09;4094379;28;20292;-82
2023/12/31 04:01:59;;;;;;;4.25;3.42;;;;;;;5.56;95.81;97298.38;4093664;28;20289;-82
2023/12/31 04:04:03;;;;;;;4.45;3.40;;;;;;;5.60;95.75;97299.88;4089606;28;20242;-83
2023/12/31 04:06:09;;;;;;;4.15;2.80;;;;;;;5.62;95.98;97292.84;4088586;28;20206;-83
2023/12/31 04:08:14;;;;;;;4.00;3.25;;;;;;;5.62;95.56;97282.50;4100733;28;20212;-83
2023/12/31 04:10:18;;;;;;;3.88;3.15;;;;;;;5.62;95.91;97280.75;4109617;28;20778;-82
2023/12/31 04:12:22;;;;;;;4.30;3.17;;;;;;;5.65;96.02;97279.72;4103522;28;20205;-82
2023/12/31 04:14:25;;;;;;;4.20;2.95;;;;;;;5.66;96.18;97283.97;4106472;28;21121;-82
2023/12/31 04:16:28;;;;;;;4.90;3.67;;;;;;;5.64;96.14;97280.66;4091506;29;20214;-82
2023/12/31 04:18:31;;;;;;;5.85;3.50;;;;;;;5.67;96.00;97270.13;4119524;28;20204;-83
2023/12/31 04:20:35;;;;;;;4.40;2.97;;;;;;;5.66;96.05;97266.69;4102417;28;20245;-89
2023/12/31 04:22:39;;;;;;;4.40;3.10;;;;;;;5.67;95.68;97258.03;4116760;28;20301;-88
2023/12/31 04:24:43;;;;;;;4.63;3.50;;;;;;;5.68;95.88;97262.28;4100338;28;20209;-85
2023/12/31 04:26:46;;;;;;;3.67;3.15;;;;;;;5.69;95.89;97252.75;4102129;28;20276;-88
2023/12/31 04:28:48;;;;;;;4.30;3.50;;;;;;;5.69;95.69;97245.00;4103964;28;20209;-86
2023/12/31 04:30:51;;;;;;;4.00;3.40;;;;;;;5.71;95.76;97235.38;4105144;28;20753;-87
2023/12/31 04:32:55;;;;;;;3.65;3.10;;;;;;;5.71;95.57;97235.38;4089085;28;20221;-89
2023/12/31 04:34:58;;;;;;;3.92;3.50;;;;;;;5.70;95.18;97229.38;4115650;28;21131;-88
2023/12/31 04:37:01;;;;;;;5.25;2.95;;;;;;;5.71;95.29;97235.38;4084768;28;20261;-89
2023/12/31 04:39:07;;;;;;;4.72;3.28;;;;;;;5.73;95.87;97228.38;4124389;28;20722;-87
2023/12/31 04:41:18;;;;;;;4.22;3.65;;;;;;;5.74;95.29;97230.03;4115664;28;20276;-89
2023/12/31 04:43:22;;;;;;;6.70;3.47;;;;;;;5.74;95.40;97219.69;4090131;28;20241;-88
2023/12/31 04:45:25;;;;;;;4.53;3.58;;;;;;;5.73;94.60;97220.63;4099447;28;20213;-90
2023/12/31 04:47:28;;;;;;;5.20;3.92;;;;;;;5.74;94.92;97222.28;4104322;28;20211;-89
2023/12/31 04:49:32;;;;;;;4.80;3.60;;;;;;;5.71;94.93;97215.53;4121749;28;20231;-86
2023/12/31 04:51:35;;;;;;;5.00;3.50;;;;;;;5.72;95.06;97213.78;4108011;28;20232;-87
2023/12/31 04:53:37;;;;;;;4.20;3.45;;;;;;;5.72;95.05;97208.59;4099685;28;20212;-90
2023/12/31 04:55:41;;;;;;;5.03;3.50;;;;;;;5.71;94.97;97201.75;4106493;28;20304;-89
2023/12/31 04:57:45;;;;;;;5.68;3.03;;;;;;;5.74;94.71;97206.75;4107706;28;20214;-89
2023/12/31 04:59:49;;;;;;;9.60;6.00;;;;;;;5.76;95.19;97210.94;4106845;28;20203;-89
2023/12/31 05:01:52;;;;;;;7.20;4.20;;;;;;;5.79;95.41;97209.91;4105930;28;20214;-85
2023/12/31 05:04:00;;;;;;;5.30;3.38;;;;;;;5.80;95.54;97215.00;4108293;28;20229;-90
2023/12/31 05:06:03;;;;;;;5.40;3.13;;;;;;;5.82;95.40;97207.94;4114554;28;20653;-86
2023/12/31 05:08:06;;;;;;;5.38;3.03;;;;;;;5.82;95.25;97201.97;4106697;28;20205;-89
2023/12/31 05:10:10;;;;;;;4.20;3.40;;;;;;;5.83;95.55;97203.59;4107324;28;20985;-89
2023/12/31 05:12:13;;;;;;;5.15;3.95;;;;;;;5.85;95.54;97201.72;4105629;28;20225;-89
2023/12/31 05:14:16;;;;;;;4.45;3.22;;;;;;;5.87;95.84;97197.31;4092480;28;20231;-87
2023/12/31 05:16:20;;;;;;;3.83;3.22;;;;;;;5.87;95.80;97195.53;4122493;28;20727;-87
2023/12/31 05:18:22;;;;;;;5.40;3.63;;;;;;;5.87;95.99;97186.97;4091062;28;20257;-89
2023/12/31 05:20:26;;;;;;;4.72;3.42;;;;;;;5.86;95.63;97190.47;4106869;28;20223;-88
2023/12/31 05:22:30;;;;;;;4.03;2.97;;;;;;;5.83;95.58;97188.94;4105747;28;20267;-89
2023/12/31 05:24:32;;;;;;;7.97;3.10;;;;;;;5.84;95.56;97190.56;4108663;28;20241;-88
2023/12/31 05:26:35;;;;;;;4.28;3.20;;;;;;;5.85;95.79;97194.81;4104577;28;20209;-89
2023/12/31 05:28:40;;;;;;;6.30;3.90;;;;;;;5.85;95.51;97188.78;4106625;28;20304;-87
2023/12/31 05:30:43;;;;;;;4.40;3.20;;;;;;;5.84;95.67;97198.31;4108793;28;20232;-89
2023/12/31 05:32:46;;;;;;;6.00;3.58;;;;;;;5.86;95.15;97193.06;4090481;28;20223;-89
2023/12/31 05:34:49;;;;;;;5.30;3.30;;;;;;;5.84;95.07;97197.50;4091476;28;20220;-89
2023/12/31 05:36:52;;;;;;;6.07;4.07;;;;;;;5.84;94.92;97197.50;4108733;28;20219;-87
2023/12/31 05:38:55;;;;;;;4.18;3.35;;;;;;;5.80;94.53;97193.44;4103568;28;20197;-86
2023/12/31 05:40:58;;;;;;;4.05;3.35;;;;;;;5.79;95.10;97187.44;4108593;28;20873;-90
2023/12/31 05:43:01;;;;;;;5.85;3.40;;;;;;;5.79;94.84;97178.88;4104990;28;20220;-89
2023/12/31 05:45:07;;;;;;;4.20;3.30;;;;;;;5.78;95.29;97179.78;4090740;28;20292;-87
2023/12/31 05:47:10;;;;;;;3.90;2.97;;;;;;;5.79;95.22;97178.88;4107966;28;20591;-90
2023/12/31 05:49:14;;;;;;;5.50;3.45;;;;;;;5.79;94.66;97168.53;4106872;28;20207;-87
2023/12/31 05:51:16;;;;;;;4.82;4.03;;;;;;;5.76;94.72;97161.78;4107046;28;20971;-86
2023/12/31 05:53:19;;;;;;;5.30;4.10;;;;;;;5.77;94.92;97155.69;4106160;28;20205;-89
2023/12/31 05:55:22;;;;;;;6.00;3.85;;;;;;;5.79;94.96;97153.00;4091560;28;20263;-89
2023/12/31 05:57:26;;;;;;;5.35;3.30;;;;;;;5.78;95.46;97146.16;4104298;28;20210;-89
2023/12/31 05:59:29;;;;;;;4.00;3.10;;;;;;;5.75;94.67;97138.59;4108727;28;20218;-89
2023/12/31 06:01:33;;;;;;;4.88;3.40;;;;;;;5.76;95.16;97142.88;4106059;28;20727;-86
2023/12/31 06:03:36;;;;;;;7.30;3.70;;;;;;;5.73;94.37;97130.09;4102512;28;20306;-87
2023/12/31 06:05:40;;;;;;;6.28;3.65;;;;;;;5.73;94.96;97130.09;4090083;28;20216;-86
2023/12/31 06:07:43;;;;;;;6.35;3.65;;;;;;;5.73;94.93;97124.91;4102211;28;20899;-88
2023/12/31 06:09:46;;;;;;;7.25;4.10;;;;;;;5.71;94.93;97126.75;4107466;28;20300;-89
2023/12/31 06:11:49;;;;;;;6.78;3.38;;;;;;;5.69;95.05;97133.78;4104746;28;20224;-89
2023/12/31 06:13:53;;;;;;;6.13;3.75;;;;;;;5.69;94.77;97126.03;4106089;28;20210;-86
2023/12/31 06:15:56;;;;;;;3.92;2.72;;;;;;;5.68;94.62;97126.94;4103308;28;20213;-88
2023/12/31 06:18:00;;;;;;;5.60;3.05;;;;;;;5.65;94.76;97133.19;4105052;28;20750;-89
2023/12/31 06:20:06;;;;;;;3.92;3.13;;;;;;;5.64;94.50;97135.84;4092188;28;20321;-87
2023/12/31 06:22:10;;;;;;;5.68;3.40;;;;;;;5.64;94.65;97131.50;4091041;28;20199;-88
2023/12/31 06:24:14;;;;;;;3.92;2.80;;;;;;;5.66;94.29;97134.00;4103215;28;20226;-87
2023/12/31 06:26:17;;;;;;;4.13;3.40;;;;;;;5.63;94.71;97124.66;4087189;29;20210;-88
2023/12/31 06:28:20;;;;;;;4.80;2.85;;;;;;;5.60;94.43;97123.22;4103473;28;20602;-89
2023/12/31 06:30:23;;;;;;;3.80;2.90;;;;;;;5.61;94.58;97123.13;4091491;28;20204;-89
2023/12/31 06:32:25;;;;;;;4.93;3.50;;;;;;;5.62;95.13;97127.34;4113569;28;20287;-89
2023/12/31 06:34:30;;;;;;;4.28;3.00;;;;;;;5.64;95.33;97117.75;4108476;28;20213;-88
2023/12/31 06:36:33;;;;;;;3.70;2.60;;;;;;;5.63;95.04;97113.50;4110829;28;20204;-89
2023/12/31 06:38:36;;;;;;;4.05;3.10;;;;;;;5.63;95.53;97129.00;4105900;28;20197;-90
2023/12/31 06:40:38;;;;;;;5.38;4.28;;;;;;;5.65;95.13;97119.41;4108566;28;20234;-82
2023/12/31 06:42:42;;;;;;;4.05;3.40;;;;;;;5.66;95.52;97121.88;4108593;28;20245;-82
2023/12/31 06:44:45;;;;;;;4.40;3.50;;;;;;;5.66;95.87;97118.47;4111442;28;20232;-82
2023/12/31 06:46:48;;;;;;;4.68;3.30;;;;;;;5.68;95.92;97124.38;4095636;28;20235;-81
2023/12/31 06:48:51;;;;;;;3.75;2.90;;;;;;;5.71;95.63;97131.94;4111009;28;20209;-83
2023/12/31 06:50:55;;;;;;;3.85;2.83;;;;;;;5.72;95.59;97125.84;4096758;28;20215;-83
2023/12/31 06:52:58;;;;;;;6.38;2.80;;;;;;;5.71;95.53;97114.69;4111610;28;20218;-82
2023/12/31 06:55:01;;;;;;;3.47;2.40;;;;;;;5.71;95.75;97119.84;4106755;28;20201;-82
2023/12/31 06:57:05;;;;;;;8.57;2.83;;;;;;;5.71;95.70;97121.59;4092849;28;20213;-82
2023/12/31 06:59:12;;;;;;;3.58;2.80;;;;;;;5.68;95.66;97125.22;4109656;28;20268;-83
2023/12/31 07:01:15;;;;;;;3.58;2.80;;;;;;;5.71;95.91;97121.59;4095216;28;20237;-82
2023/12/31 07:03:17;;;;;;;7.25;3.05;;;;;;;5.76;95.56;97129.94;4092296;28;20216;-81
2023/12/31 07:05:21;;;;;;;4.05;2.80;;;;;;;5.77;96.54;97131.56;4092911;28;20249;-82
2023/12/31 07:07:25;;;;;;;4.38;3.22;;;;;;;5.75;96.53;97133.44;4109398;28;20202;-82
2023/12/31 07:09:29;;;;;;;4.63;3.28;;;;;;;5.76;95.61;97132.50;4102958;28;20206;-82
2023/12/31 07:11:32;;;;;;;3.42;2.88;;;;;;;5.79;96.41;97129.72;4092903;28;20277;-82
2023/12/31 07:13:36;;;;;;;4.13;2.92;;;;;;;5.82;96.76;97130.34;4090731;28;20704;-81
2023/12/31 07:15:40;;;;;;;5.45;3.30;;;;;;;5.84;96.42;97132.84;4104293;28;20273;-82
2023/12/31 07:17:43;;;;;;;4.63;3.30;;;;;;;5.86;96.61;97142.13;4109824;28;20873;-83
2023/12/31 07:19:46;;;;;;;3.75;2.97;;;;;;;5.91;96.57;97149.59;4092445;28;20209;-81
2023/12/31 07:21:49;;;;;;;3.85;3.15;;;;;;;5.93;96.48;97140.00;4122856;28;20320;-83
2023/12/31 07:23:53;;;;;;;4.25;2.85;;;;;;;5.93;96.26;97155.53;4092338;28;20216;-82
2023/12/31 07:25:55;;;;;;;5.28;3.58;;;;;;;5.92;96.98;97143.50;4089859;28;20216;-84
2023/12/31 07:28:00;;;;;;;5.22;3.00;;;;;;;5.94;96.86;97134.72;4107809;28;20202;-82
2023/12/31 07:30:03;;;;;;;8.68;3.17;;;;;;;5.95;96.44;97144.13;4092348;28;20224;-83
2023/12/31 07:32:07;;;;;;;4.35;2.80;;;;;;;5.98;96.71;97149.09;4119856;28;20247;-83
2023/12/31 07:34:10;;;;;;;3.55;2.60;;;;;;;6.01;96.79;97156.66;4092306;28;20705;-82
2023/12/31 07:36:13;;;;;;;4.90;3.13;;;;;;;6.04;96.55;97148.69;4090847;28;20337;-82
2023/12/31 07:38:16;;;;;;;5.50;3.28;;;;;;;6.04;96.50;97160.81;4109562;28;20201;-82
2023/12/31 07:40:21;;;;;;;3.50;2.85;;;;;;;6.08;96.53;97163.09;4094753;28;20216;-84
2023/12/31 07:42:24;;;;;;;4.90;3.30;;;;;;;6.08;97.14;97179.44;4108802;28;20212;-84
2023/12/31 07:44:26;;;;;;;4.80;3.10;;;;;;;6.11;96.61;97176.66;4125404;28;20285;-82
2023/12/31 07:46:29;;;;;;;4.28;3.28;;;;;;;6.14;96.61;97188.59;4109865;28;20298;-82
2023/12/31 07:48:32;;;;;;;3.72;3.20;;;;;;;6.11;96.24;97192.19;4103340;28;20205;-81
2023/12/31 07:50:36;;;;;;;5.18;3.28;;;;;;;6.12;96.42;97183.50;4085466;28;20242;-82
2023/12/31 07:52:39;;;;;;;4.97;3.38;;;;;;;6.14;96.51;97197.16;4090347;28;20223;-82
2023/12/31 07:54:43;;;;;;;8.73;4.75;;;;;;;6.16;96.56;97200.50;4104343;28;20361;-81
2023/12/31 07:56:49;;;;;;;6.70;4.88;;;;;;;6.14;95.71;97210.09;4106477;28;20208;-81
2023/12/31 07:58:52;;;;;;;6.57;5.32;;;;;;;6.09;94.17;97203.59;4105084;28;20310;-83
2023/12/31 08:00:58;;;;;;;7.72;6.20;;;;;;;5.97;94.50;97214.72;4109269;28;20262;-83
2023/12/31 08:03:02;;;;;;;5.35;4.55;;;;;;;5.92;94.58;97192.66;4126841;28;20201;-83
2023/12/31 08:05:07;;;;;;;5.40;4.20;;;;;;;5.91;94.46;97206.50;4094600;28;20237;-82
2023/12/31 08:07:10;;;;;;;5.32;3.90;;;;;;;5.92;95.25;97197.84;4108657;28;20259;-83
2023/12/31 08:09:13;;;;;;;5.82;3.65;;;;;;;5.92;95.00;97203.81;4104552;28;20235;-83
2023/12/31 08:11:18;;;;;;;5.75;3.83;;;;;;;5.92;95.16;97208.19;4108305;28;20213;-82
2023/12/31 08:13:23;;;;;;;4.75;3.80;;;;;;;5.93;95.98;97202.09;4105846;28;20742;-84
2023/12/31 08:15:25;;;;;;;6.28;4.00;;;;;;;5.95;95.51;97208.81;4094696;28;20759;-83
2023/12/31 08:17:29;;;;;;;5.72;3.65;;;;;;;5.96;96.06;97199.31;4110186;28;20232;-83
2023/12/31 08:19:32;;;;;;;5.47;3.90;;;;;;;6.01;96.16;97192.06;4098837;28;20209;-82
2023/12/31 08:21:35;;;;;;;5.70;3.88;;;;;;;6.03;96.25;97192.78;4093169;28;20227;-82
2023/12/31 08:23:38;;;;;;;4.78;3.60;;;;;;;6.08;96.91;97189.81;4104694;28;20270;-84
2023/12/31 08:25:42;;;;;;;3.60;3.15;;;;;;;6.12;96.47;97167.97;4124938;28;20746;-83
2023/12/31 08:27:45;;;;;;;15.32;10.00;;;;;;;6.17;96.33;97163.31;4123198;28;20780;-81
2023/12/31 08:29:49;;;;;;;5.90;3.72;;;;;;;6.17;96.75;97159.91;4089128;28;20288;-81
2023/12/31 08:31:53;;;;;;;3.95;2.72;;;;;;;6.22;96.54;97169.06;4105336;28;20295;-81
2023/12/31 08:33:57;;;;;;;6.72;4.63;;;;;;;6.34;96.97;97175.16;4122696;28;20228;-82
2023/12/31 08:36:00;;;;;;;6.18;3.78;;;;;;;6.44;96.62;97165.84;4103853;28;20236;-82
2023/12/31 08:38:04;;;;;;;4.05;2.63;;;;;;;6.54;96.75;97178.09;4104124;28;20217;-81
2023/12/31 08:40:09;;;;;;;5.10;3.10;;;;;;;6.60;97.43;97172.50;4108912;28;20205;-82
2023/12/31 08:42:13;;;;;;;4.05;2.60;;;;;;;6.72;96.46;97167.31;4106484;28;20212;-82
2023/12/31 08:44:15;;;;;;;3.30;2.40;;;;;;;6.83;96.60;97176.94;4105931;28;20216;-81
2023/12/31 08:46:20;;;;;;;3.08;2.38;;;;;;;6.93;96.17;97170.19;4099610;28;20302;-80
2023/12/31 08:48:23;;;;;;;6.88;4.38;;;;;;;7.01;94.78;97173.09;4086615;28;20652;-80
2023/12/31 08:50:26;;;;;;;5.20;3.20;;;;;;;7.10;95.10;97173.28;4103635;28;20216;-82
2023/12/31 08:52:28;;;;;;;14.43;9.35;;;;;;;7.15;94.43;97168.59;4088903;28;20573;-82
2023/12/31 08:54:33;;;;;;;11.15;8.73;;;;;;;7.20;93.90;97169.09;4096851;28;20850;-80
2023/12/31 08:56:36;;;;;;;12.90;11.55;;;;;;;7.16;94.09;97157.31;4101587;28;20208;-82
2023/12/31 08:58:40;;;;;;;9.90;8.60;;;;;;;7.13;94.64;97162.69;4099594;28;20208;-82
2023/12/31 09:00:43;;;;;;;9.80;8.48;;;;;;;7.10;95.28;97158.53;4101277;28;20285;-87
2023/12/31 09:02:48;;;;;;;11.70;8.90;;;;;;;7.13;94.59;97153.16;4099998;28;20201;-87
2023/12/31 09:04:51;;;;;;;10.40;8.10;;;;;;;7.18;96.07;97151.06;4103807;28;20222;-87
2023/12/31 09:06:54;;;;;;;7.45;6.15;;;;;;;7.23;94.81;97151.59;4103932;28;20220;-87
2023/12/31 09:08:57;;;;;;;6.65;4.63;;;;;;;7.22;94.84;97147.31;4100582;28;20258;-86
2023/12/31 09:11:00;;;;;;;6.50;4.13;;;;;;;7.23;93.41;97136.03;4103965;28;20239;-87
2023/12/31 09:13:03;;;;;;;5.03;3.13;;;;;;;7.37;89.41;97132.47;4099565;28;20215;-86
2023/12/31 09:15:07;;;;;;;5.15;3.00;;;;;;;7.56;90.82;97146.56;4106992;28;20212;-84
2023/12/31 09:17:11;;;;;;;3.47;2.40;;;;;;;7.68;87.63;97136.16;4107178;28;20307;-89
2023/12/31 09:19:16;;;;;;;4.10;2.90;;;;;;;7.83;86.57;97142.81;4110865;28;20660;-88
2023/12/31 09:21:19;;;;;;;3.13;2.30;;;;;;;7.97;85.30;97151.28;4103910;28;20240;-87
2023/12/31 09:23:22;;;;;;;3.15;2.10;;;;;;;8.13;84.83;97149.25;4103793;28;20212;-84
2023/12/31 09:25:26;;;;;;;2.13;1.50;;;;;;;8.27;83.90;97149.06;4101774;28;20213;-85
2023/12/31 09:27:30;;;;;;;2.72;2.00;;;;;;;8.40;84.32;97146.34;4103267;28;20212;-87
2023/12/31 09:29:33;;;;;;;2.50;1.73;;;;;;;8.50;83.27;97150.75;4105491;28;20295;-88
2023/12/31 09:31:37;;;;;;;2.55;1.70;;;;;;;8.60;80.04;97141.31;4100699;28;20635;-87
2023/12/31 09:33:41;;;;;;;5.00;2.80;;;;;;;8.74;81.58;97141.09;4108886;28;20225;-89
2023/12/31 09:35:45;;;;;;;14.02;5.65;;;;;;;8.83;80.29;97135.22;4109454;28;20207;-88
2023/12/31 09:37:48;;;;;;;10.98;4.03;;;;;;;8.92;80.62;97130.13;4108108;28;20212;-89
2023/12/31 09:39:51;;;;;;;3.30;2.15;;;;;;;9.02;79.27;97126.69;4109762;28;20675;-87
2023/12/31 09:41:56;;;;;;;4.05;2.65;;;;;;;9.11;81.04;97118.19;4106129;28;20288;-88
2023/12/31 09:43:59;;;;;;;4.60;3.13;;;;;;;9.17;80.95;97109.91;4103277;28;20276;-88
2023/12/31 09:46:04;;;;;;;2.87;1.90;;;;;;;9.23;78.05;97114.63;4103569;28;21014;-87
2023/12/31 09:48:08;;;;;;;3.03;2.00;;;;;;;9.33;78.02;97106.91;4106687;28;20620;-88